createdAt,value
2022-08-17T00:01:27.346Z,99660.13
2022-08-17T00:03:54.742Z,99659.00
2022-08-17T00:06:31.975Z,99660.13
2022-08-17T00:09:01.091Z,99659.31
2022-08-17T00:11:34.457Z,99668.81
2022-08-17T00:14:05.589Z,99659.84
2022-08-17T00:16:55.977Z,99658.53
2022-08-17T00:19:24.382Z,99655.59
2022-08-17T00:22:28.750Z,99650.72
2022-08-17T00:24:39.347Z,99654.59
2022-08-17T00:27:05.736Z,99655.97
2022-08-17T00:29:32.102Z,99654.66
2022-08-17T00:31:58.501Z,99655.47
2022-08-17T00:34:25.225Z,99654.97
2022-08-17T00:36:54.238Z,99649.53
2022-08-17T00:39:20.622Z,99654.22
2022-08-17T00:41:47.655Z,99654.50
2022-08-17T00:44:15.476Z,99652.88
2022-08-17T00:46:43.791Z,99652.09
2022-08-17T00:49:13.160Z,99625.50
2022-08-17T00:51:50.515Z,99639.84
2022-08-17T00:54:22.090Z,99645.31
2022-08-17T00:56:56.693Z,99643.19
2022-08-17T00:59:27.040Z,99641.53
2022-08-17T01:01:53.738Z,99645.66
2022-08-17T01:04:22.290Z,99637.25
2022-08-17T01:06:49.762Z,99634.53
2022-08-17T01:09:17.810Z,99638.88
2022-08-17T01:11:46.117Z,99636.19
2022-08-17T01:14:13.217Z,99637.59
2022-08-17T01:16:39.829Z,99634.63
2022-08-17T01:19:28.766Z,99629.50
2022-08-17T01:22:08.977Z,99641.47
2022-08-17T01:24:41.134Z,99642.56
2022-08-17T01:27:10.501Z,99633.84
2022-08-17T01:29:39.679Z,99641.75
2022-08-17T01:32:08.437Z,99645.06
2022-08-17T01:34:35.129Z,99645.59
2022-08-17T01:37:10.642Z,99635.28
2022-08-17T01:39:47.897Z,99644.22
2022-08-17T01:42:24.486Z,99647.47
2022-08-17T01:44:55.330Z,99636.06
2022-08-17T01:47:21.838Z,99642.34
2022-08-17T01:49:48.758Z,99644.75
2022-08-17T01:52:15.677Z,99643.16
2022-08-17T01:54:45.207Z,99656.22
2022-08-17T01:57:11.794Z,99645.34
2022-08-17T01:59:38.125Z,99646.41
2022-08-17T02:02:05.194Z,99649.13
2022-08-17T02:04:32.132Z,99656.22
2022-08-17T02:06:58.568Z,99664.63
2022-08-17T02:09:29.841Z,99660.56
2022-08-17T02:11:58.270Z,99659.75
2022-08-17T02:14:25.139Z,99660.56
2022-08-17T02:16:52.196Z,99633.97
2022-08-17T02:19:19.034Z,99651.59
2022-08-17T02:21:47.776Z,99653.25
2022-08-17T02:25:00.058Z,99647.56
2022-08-17T02:27:08.191Z,99650.81
2022-08-17T02:29:34.567Z,99651.91
2022-08-17T02:32:01.662Z,99643.47
2022-08-17T02:34:28.166Z,99643.22
2022-08-17T02:36:54.622Z,99649.22
2022-08-17T02:39:21.590Z,99645.69
2022-08-17T02:41:48.498Z,99635.66
2022-08-17T02:44:14.957Z,99639.47
2022-08-17T02:47:01.350Z,99635.91
2022-08-17T02:49:27.761Z,99640.00
2022-08-17T02:51:54.098Z,99644.34
2022-08-17T02:54:41.713Z,99638.09
2022-08-17T02:57:06.871Z,99645.44
2022-08-17T02:59:33.201Z,99632.13
2022-08-17T03:01:59.571Z,99638.09
2022-08-17T03:04:26.062Z,99647.88
2022-08-17T03:06:52.687Z,99646.81
2022-08-17T03:09:19.044Z,99637.81
2022-08-17T03:11:45.375Z,99637.28
2022-08-17T03:14:12.402Z,99632.13
2022-08-17T03:16:38.828Z,99628.06
2022-08-17T03:19:05.726Z,99639.72
2022-08-17T03:21:32.104Z,99636.22
2022-08-17T03:23:58.600Z,99641.91
2022-08-17T03:26:25.055Z,99646.50
2022-08-17T03:28:56.060Z,99644.88
2022-08-17T03:31:22.514Z,99646.53
2022-08-17T03:33:48.993Z,99646.50
2022-08-17T03:36:15.506Z,99644.59
2022-08-17T03:38:41.873Z,99646.78
2022-08-17T03:41:08.296Z,99640.78
2022-08-17T03:43:34.803Z,99633.47
2022-08-17T03:46:28.453Z,99633.22
2022-08-17T03:49:34.202Z,99631.28
2022-08-17T03:52:29.479Z,99640.50
2022-08-17T03:55:14.220Z,99642.41
2022-08-17T03:57:40.540Z,99644.59
2022-08-17T04:00:07.327Z,99644.06
2022-08-17T04:02:34.432Z,99641.34
2022-08-17T04:05:01.563Z,99638.06
2022-08-17T04:07:30.539Z,99644.88
2022-08-17T04:09:57.892Z,99658.97
2022-08-17T04:12:30.474Z,99654.09
2022-08-17T04:14:57.102Z,99649.22
2022-08-17T04:17:27.553Z,99654.94
2022-08-17T04:19:55.140Z,99655.75
2022-08-17T04:22:31.729Z,99661.72
2022-08-17T04:25:09.887Z,99656.81
2022-08-17T04:27:36.427Z,99652.50
2022-08-17T04:30:06.814Z,99637.00
2022-08-17T04:33:02.322Z,99656.81
2022-08-17T04:35:22.556Z,99649.78
2022-08-17T04:37:48.981Z,99648.41
2022-08-17T04:40:34.741Z,99647.59
2022-08-17T04:43:03.529Z,99632.66
2022-08-17T04:45:32.346Z,99649.22
2022-08-17T04:48:00.157Z,99649.78
2022-08-17T04:50:26.933Z,99661.75
2022-08-17T04:52:53.300Z,99665.25
2022-08-17T04:55:19.779Z,99669.34
2022-08-17T04:57:46.200Z,99670.41
2022-08-17T05:00:13.138Z,99669.88
2022-08-17T05:02:50.969Z,99671.47
2022-08-17T05:05:29.701Z,99668.22
2022-08-17T05:08:02.070Z,99672.03
2022-08-17T05:10:31.781Z,99658.72
2022-08-17T05:13:00.565Z,99672.03
2022-08-17T05:15:28.350Z,99673.63
2022-08-17T05:17:59.578Z,99666.25
2022-08-17T05:20:26.157Z,99650.28
2022-08-17T05:22:55.206Z,99669.22
2022-08-17T05:25:25.001Z,99663.22
2022-08-17T05:27:53.083Z,99652.59
2022-08-17T05:30:19.661Z,99659.38
2022-08-17T05:32:58.224Z,99660.97
2022-08-17T05:35:27.119Z,99642.53
2022-08-17T05:37:54.160Z,99655.25
2022-08-17T05:40:23.949Z,99651.19
2022-08-17T05:42:50.583Z,99645.72
2022-08-17T05:45:46.042Z,99654.69
2022-08-17T05:48:10.088Z,99660.13
2022-08-17T05:50:55.615Z,99655.50
2022-08-17T05:53:50.498Z,99648.72
2022-08-17T05:56:54.543Z,99652.47
2022-08-17T05:59:35.434Z,99646.50
2022-08-17T06:02:16.074Z,99633.72
2022-08-17T06:05:19.925Z,99650.50
2022-08-17T06:07:52.370Z,99658.91
2022-08-17T06:10:39.912Z,99651.84
2022-08-17T06:13:38.537Z,99649.91
2022-08-17T06:16:31.145Z,99646.34
2022-08-17T06:19:06.390Z,99656.59
2022-08-17T06:21:39.379Z,99662.53
2022-08-17T06:24:21.317Z,99676.06
2022-08-17T06:26:48.193Z,99692.66
2022-08-17T06:29:37.074Z,99687.56
2022-08-17T06:32:07.426Z,99678.31
2022-08-17T06:34:34.066Z,99692.94
2022-08-17T06:37:20.008Z,99700.28
2022-08-17T06:39:58.532Z,99724.22
2022-08-17T06:43:04.010Z,99727.19
2022-08-17T06:45:34.526Z,99713.91
2022-08-17T06:48:18.718Z,99727.97
2022-08-17T06:50:53.329Z,99724.09
2022-08-17T06:53:43.799Z,99737.41
2022-08-17T06:56:13.652Z,99734.59
2022-08-17T06:58:43.246Z,99726.16
2022-08-17T07:01:14.853Z,99743.97
2022-08-17T07:03:55.345Z,99742.22
2022-08-17T07:06:26.463Z,99744.09
2022-08-17T07:09:01.569Z,99746.75
2022-08-17T07:11:33.950Z,99744.50
2022-08-17T07:14:19.412Z,99743.63
2022-08-17T07:16:50.373Z,99746.28
2022-08-17T07:19:20.108Z,99737.47
2022-08-17T07:22:05.370Z,99727.84
2022-08-17T07:24:51.845Z,99736.72
2022-08-17T07:27:31.132Z,99729.97
2022-08-17T07:30:25.986Z,99738.59
2022-08-17T07:33:01.385Z,99718.16
2022-08-17T07:35:37.680Z,99741.09
2022-08-17T07:38:29.003Z,99743.53
2022-08-17T07:41:01.959Z,99751.16
2022-08-17T07:43:31.171Z,99767.72
2022-08-17T07:46:35.581Z,99770.69
2022-08-17T07:49:07.335Z,99791.97
2022-08-17T07:51:39.578Z,99787.47
2022-08-17T07:54:15.149Z,99777.38
2022-08-17T07:56:44.664Z,99791.16
2022-08-17T07:59:23.592Z,99799.38
2022-08-17T08:02:26.430Z,99789.25
2022-08-17T08:05:16.228Z,99793.38
2022-08-17T08:08:25.136Z,99793.69
2022-08-17T08:11:15.224Z,99792.84
2022-08-17T08:13:43.715Z,99798.25
2022-08-17T08:16:26.016Z,99805.13
2022-08-17T08:18:58.708Z,99794.47
2022-08-17T08:21:51.327Z,99799.16
2022-08-17T08:24:45.279Z,99796.41
2022-08-17T08:27:27.140Z,99797.78
2022-08-17T08:30:09.919Z,99793.38
2022-08-17T08:33:14.552Z,99801.78
2022-08-17T08:35:55.437Z,99807.69
2022-08-17T08:38:28.216Z,99811.84
2022-08-17T08:41:12.963Z,99808.66
2022-08-17T08:43:52.252Z,99803.56
2022-08-17T08:46:36.880Z,99809.13
2022-08-17T08:49:45.095Z,99795.59
2022-08-17T08:52:30.779Z,99790.69
2022-08-17T08:55:08.217Z,99794.50
2022-08-17T08:57:41.037Z,99790.97
2022-08-17T09:00:15.571Z,99789.59
2022-08-17T09:03:12.572Z,99794.00
2022-08-17T09:06:02.804Z,99802.78
2022-08-17T09:08:34.999Z,99793.03
2022-08-17T09:11:23.241Z,99790.81
2022-08-17T09:13:54.453Z,99793.50
2022-08-17T09:16:46.329Z,99803.78
2022-08-17T09:19:30.370Z,99807.84
2022-08-17T09:22:36.168Z,99821.69
2022-08-17T09:25:12.938Z,99813.22
2022-08-17T09:27:54.712Z,99820.22
2022-08-17T09:30:21.709Z,99819.38
2022-08-17T09:32:56.362Z,99815.56
2022-08-17T09:35:33.805Z,99808.41
2022-08-17T09:38:32.789Z,99805.72
2022-08-17T09:41:09.245Z,99820.44
2022-08-17T09:43:51.503Z,99817.16
2022-08-17T09:46:23.673Z,99816.94
2022-08-17T09:48:57.483Z,99825.91
2022-08-17T09:51:40.903Z,99828.69
2022-08-17T09:54:40.300Z,99828.72
2022-08-17T09:57:31.841Z,99825.25
2022-08-17T10:00:16.046Z,99827.78
2022-08-17T10:02:55.188Z,99820.44
2022-08-17T10:05:27.304Z,99821.28
2022-08-17T10:08:02.613Z,99814.25
2022-08-17T10:10:56.891Z,99826.81
2022-08-17T10:13:34.354Z,99821.97
2022-08-17T10:16:15.993Z,99826.94
2022-08-17T10:19:07.091Z,99823.69
2022-08-17T10:22:00.836Z,99816.03
2022-08-17T10:25:21.881Z,99783.34
2022-08-17T10:27:55.170Z,99817.13
2022-08-17T10:30:25.768Z,99806.72
2022-08-17T10:32:55.135Z,99810.75
2022-08-17T10:35:52.295Z,99798.72
2022-08-17T10:38:46.158Z,99802.16
2022-08-17T10:41:25.626Z,99807.78
2022-08-17T10:44:38.973Z,99811.94
2022-08-17T10:47:14.894Z,99821.44
2022-08-17T10:49:53.641Z,99811.03
2022-08-17T10:52:20.034Z,99800.81
2022-08-17T10:54:48.962Z,99812.31
2022-08-17T10:57:31.561Z,99809.84
2022-08-17T10:59:59.946Z,99820.66
2022-08-17T11:02:38.953Z,99820.22
2022-08-17T11:05:27.456Z,99827.72
2022-08-17T11:08:12.546Z,99837.94
2022-08-17T11:10:38.904Z,99834.88
2022-08-17T11:13:29.827Z,99827.47
2022-08-17T11:16:17.354Z,99832.19
2022-08-17T11:19:11.191Z,99837.34
2022-08-17T11:21:55.160Z,99832.50
2022-08-17T11:24:44.101Z,99837.19
2022-08-17T11:27:21.878Z,99838.31
2022-08-17T11:30:02.268Z,99835.72
2022-08-17T11:32:54.683Z,99839.66
2022-08-17T11:35:21.602Z,99839.56
2022-08-17T11:37:53.819Z,99846.28
2022-08-17T11:40:20.198Z,99828.00
2022-08-17T11:42:54.197Z,99828.66
2022-08-17T11:45:32.608Z,99825.38
2022-08-17T11:49:00.132Z,99840.16
2022-08-17T11:51:54.439Z,99829.31
2022-08-17T11:54:34.441Z,99840.34
2022-08-17T11:57:27.086Z,99829.28
2022-08-17T12:00:11.802Z,99826.69
2022-08-17T12:02:47.471Z,99822.31
2022-08-17T12:05:17.219Z,99831.06
2022-08-17T12:07:51.950Z,99830.03
2022-08-17T12:10:24.105Z,99834.88
2022-08-17T12:12:53.116Z,99839.47
2022-08-17T12:15:31.213Z,99836.94
2022-08-17T12:17:58.676Z,99827.06
2022-08-17T12:20:33.271Z,99832.53
2022-08-17T12:23:05.676Z,99827.22
2022-08-17T12:25:42.305Z,99823.38
2022-08-17T12:28:24.824Z,99831.44
2022-08-17T12:30:52.338Z,99828.34
2022-08-17T12:33:25.559Z,99827.19
2022-08-17T12:36:03.181Z,99830.56
2022-08-17T12:38:35.923Z,99826.75
2022-08-17T12:41:24.561Z,99835.03
2022-08-17T12:44:07.969Z,99835.56
2022-08-17T12:46:51.887Z,99822.88
2022-08-17T12:49:24.226Z,99829.50
2022-08-17T12:51:53.678Z,99829.84
2022-08-17T12:54:29.135Z,99838.06
2022-08-17T12:56:55.900Z,99816.59
2022-08-17T12:59:30.130Z,99820.09
2022-08-17T13:01:57.512Z,99824.34
2022-08-17T13:04:24.164Z,99827.25
2022-08-17T13:06:59.634Z,99841.66
2022-08-17T13:09:35.363Z,99849.09
2022-08-17T13:12:06.850Z,99843.03
2022-08-17T13:14:34.261Z,99840.38
2022-08-17T13:17:07.354Z,99839.34
2022-08-17T13:19:47.806Z,99841.38
2022-08-17T13:22:14.291Z,99837.09
2022-08-17T13:24:53.018Z,99834.34
2022-08-17T13:27:21.326Z,99820.66
2022-08-17T13:29:53.611Z,99827.94
2022-08-17T13:32:23.070Z,99821.97
2022-08-17T13:35:15.556Z,99819.47
2022-08-17T13:37:40.983Z,99824.56
2022-08-17T13:40:09.147Z,99828.03
2022-08-17T13:42:51.700Z,99826.69
2022-08-17T13:45:34.952Z,99826.03
2022-08-17T13:48:21.947Z,99824.50
2022-08-17T13:51:05.180Z,99821.84
2022-08-17T13:53:37.406Z,99823.16
2022-08-17T13:56:37.341Z,99827.13
2022-08-17T13:59:11.201Z,99829.72
2022-08-17T14:01:49.558Z,99816.47
2022-08-17T14:04:23.124Z,99822.72
2022-08-17T14:06:53.069Z,99821.53
2022-08-17T14:09:24.201Z,99820.88
2022-08-17T14:11:51.630Z,99819.94
2022-08-17T14:14:19.089Z,99828.19
2022-08-17T14:16:45.561Z,99819.41
2022-08-17T14:19:14.133Z,99818.81
2022-08-17T14:21:44.200Z,99820.69
2022-08-17T14:24:32.059Z,99824.66
2022-08-17T14:27:00.035Z,99824.16
2022-08-17T14:29:28.613Z,99814.56
2022-08-17T14:31:55.988Z,99815.88
2022-08-17T14:34:23.896Z,99812.00
2022-08-17T14:36:50.851Z,99817.59
2022-08-17T14:39:18.649Z,99805.94
2022-08-17T14:41:45.093Z,99810.44
2022-08-17T14:44:12.423Z,99803.53
2022-08-17T14:46:44.056Z,99809.22
2022-08-17T14:49:12.825Z,99807.31
2022-08-17T14:51:43.895Z,99798.41
2022-08-17T14:54:28.861Z,99794.59
2022-08-17T14:57:14.827Z,99799.81
2022-08-17T14:59:46.980Z,99806.06
2022-08-17T15:02:13.713Z,99799.81
2022-08-17T15:04:45.399Z,99801.94
2022-08-17T15:07:12.089Z,99794.06
2022-08-17T15:09:38.891Z,99805.19
2022-08-17T15:12:06.501Z,99803.56
2022-08-17T15:14:34.869Z,99789.13
2022-08-17T15:17:03.510Z,99772.56
2022-08-17T15:19:30.009Z,99779.88
2022-08-17T15:21:56.449Z,99766.88
2022-08-17T15:24:22.802Z,99786.47
2022-08-17T15:26:49.154Z,99794.75
2022-08-17T15:29:15.530Z,99783.09
2022-08-17T15:31:41.930Z,99795.06
2022-08-17T15:34:08.357Z,99791.06
2022-08-17T15:36:35.771Z,99790.44
2022-08-17T15:39:03.066Z,99779.94
2022-08-17T15:41:29.749Z,99756.16
2022-08-17T15:43:56.345Z,99772.97
2022-08-17T15:46:25.425Z,99773.06
2022-08-17T15:48:56.462Z,99772.91
2022-08-17T15:51:27.225Z,99770.38
2022-08-17T15:53:56.509Z,99774.69
2022-08-17T15:56:25.733Z,99771.19
2022-08-17T15:58:54.675Z,99777.78
2022-08-17T16:02:27.734Z,99784.91
2022-08-17T16:04:29.532Z,99780.91
2022-08-17T16:06:56.724Z,99788.03
2022-08-17T16:09:23.108Z,99778.81
2022-08-17T16:11:52.095Z,99780.63
2022-08-17T16:14:22.303Z,99795.47
2022-08-17T16:16:49.530Z,99804.16
2022-08-17T16:19:16.145Z,99810.75
2022-08-17T16:21:43.271Z,99802.31
2022-08-17T16:24:12.843Z,99797.34
2022-08-17T16:26:40.667Z,99803.44
2022-08-17T16:29:07.760Z,99784.50
2022-08-17T16:31:36.003Z,99794.94
2022-08-17T16:34:16.306Z,99806.09
2022-08-17T16:36:55.014Z,99789.47
2022-08-17T16:39:24.468Z,99799.19
2022-08-17T16:41:50.848Z,99796.06
2022-08-17T16:44:21.682Z,99795.06
2022-08-17T16:46:50.103Z,99801.44
2022-08-17T16:49:35.244Z,99792.63
2022-08-17T16:52:05.487Z,99794.03
2022-08-17T16:54:32.513Z,99792.72
2022-08-17T16:56:59.070Z,99780.94
2022-08-17T16:59:30.999Z,99788.66
2022-08-17T17:02:11.267Z,99786.00
2022-08-17T17:04:44.824Z,99788.13
2022-08-17T17:07:25.630Z,99801.41
2022-08-17T17:09:55.290Z,99803.03
2022-08-17T17:13:03.774Z,99799.38
2022-08-17T17:15:10.255Z,99796.94
2022-08-17T17:17:38.585Z,99806.88
2022-08-17T17:20:29.118Z,99802.56
2022-08-17T17:23:09.859Z,99805.41
2022-08-17T17:26:00.084Z,99806.19
2022-08-17T17:28:36.253Z,99808.78
2022-08-17T17:31:14.823Z,99803.47
2022-08-17T17:33:53.233Z,99812.31
2022-08-17T17:36:45.616Z,99813.41
2022-08-17T17:39:18.109Z,99817.72
2022-08-17T17:41:51.394Z,99824.66
2022-08-17T17:44:24.391Z,99830.72
2022-08-17T17:46:54.656Z,99835.16
2022-08-17T17:49:21.168Z,99848.13
2022-08-17T17:52:09.177Z,99853.88
2022-08-17T17:55:07.275Z,99840.59
2022-08-17T17:57:46.840Z,99835.25
2022-08-17T18:00:42.714Z,99830.94
2022-08-17T18:03:09.271Z,99836.72
2022-08-17T18:06:02.639Z,99839.16
2022-08-17T18:08:53.148Z,99831.63
2022-08-17T18:11:26.040Z,99829.47
2022-08-17T18:14:20.074Z,99823.28
2022-08-17T18:16:47.991Z,99824.72
2022-08-17T18:19:19.732Z,99831.66
2022-08-17T18:21:52.129Z,99824.34
2022-08-17T18:24:32.945Z,99833.47
2022-08-17T18:27:01.873Z,99835.22
2022-08-17T18:29:45.533Z,99832.25
2022-08-17T18:32:28.149Z,99835.03
2022-08-17T18:35:01.805Z,99836.22
2022-08-17T18:37:38.789Z,99841.75
2022-08-17T18:40:17.356Z,99858.25
2022-08-17T18:42:46.527Z,99855.06
2022-08-17T18:45:13.504Z,99861.63
2022-08-17T18:47:54.155Z,99870.38
2022-08-17T18:50:27.309Z,99866.88
2022-08-17T18:52:55.966Z,99860.44
2022-08-17T18:55:28.883Z,99862.41
2022-08-17T18:57:59.522Z,99883.16
2022-08-17T19:00:36.821Z,99896.22
2022-08-17T19:03:18.615Z,99897.88
2022-08-17T19:05:49.911Z,99887.31
2022-08-17T19:08:28.627Z,99901.19
2022-08-17T19:11:09.401Z,99909.13
2022-08-17T19:13:43.478Z,99911.34
2022-08-17T19:16:20.010Z,99909.44
2022-08-17T19:18:51.995Z,99907.84
2022-08-17T19:21:25.073Z,99908.66
2022-08-17T19:24:11.657Z,99905.16
2022-08-17T19:26:54.672Z,99892.63
2022-08-17T19:29:36.812Z,99901.66
2022-08-17T19:32:04.166Z,99891.06
2022-08-17T19:34:34.631Z,99903.81
2022-08-17T19:37:40.437Z,99903.28
2022-08-17T19:44:05.918Z,99906.63
2022-08-17T19:46:59.560Z,99906.03
2022-08-17T19:49:47.980Z,99902.50
2022-08-17T19:52:37.346Z,99911.47
2022-08-17T19:55:22.933Z,99898.69
2022-08-17T19:58:01.853Z,99914.75
2022-08-17T20:00:29.063Z,99909.31
2022-08-17T20:03:05.612Z,99910.13
2022-08-17T20:06:08.714Z,99913.38
2022-08-17T20:08:26.366Z,99917.47
2022-08-17T20:11:09.024Z,99914.47
2022-08-17T20:13:43.556Z,99882.91
2022-08-17T20:16:11.077Z,99895.44
2022-08-17T20:18:58.621Z,99898.69
2022-08-17T20:21:31.449Z,99916.06
2022-08-17T20:24:17.670Z,99911.75
2022-08-17T20:26:58.183Z,99903.53
2022-08-17T20:29:31.948Z,99921.22
2022-08-17T20:32:17.456Z,99923.91
2022-08-17T20:34:46.355Z,99920.91
2022-08-17T20:37:12.689Z,99925.81
2022-08-17T20:39:52.302Z,99937.22
2022-08-17T20:42:21.767Z,99931.22
2022-08-17T20:44:54.233Z,99931.19
2022-08-17T20:47:27.368Z,99930.88
2022-08-17T20:50:15.043Z,99935.22
2022-08-17T20:52:51.970Z,99936.03
2022-08-17T20:55:51.678Z,99929.75
2022-08-17T20:58:29.936Z,99933.00
2022-08-17T21:00:57.644Z,99935.44
2022-08-17T21:03:51.101Z,99935.41
2022-08-17T21:06:21.649Z,99932.69
2022-08-17T21:09:18.690Z,99924.25
2022-08-17T21:12:04.233Z,99932.94
2022-08-17T21:14:59.866Z,99931.31
2022-08-17T21:17:29.642Z,99929.41
2022-08-17T21:20:40.060Z,99938.59
2022-08-17T21:23:16.192Z,99928.25
2022-08-17T21:25:55.238Z,99922.81
2022-08-17T21:28:29.958Z,99923.31
2022-08-17T21:31:08.425Z,99931.41
2022-08-17T21:33:38.537Z,99927.00
2022-08-17T21:36:19.973Z,99930.25
2022-08-17T21:38:56.994Z,99937.53
2022-08-17T21:41:29.466Z,99945.59
2022-08-17T21:44:21.868Z,99944.75
2022-08-17T21:46:51.557Z,99943.63
2022-08-17T21:49:21.201Z,99942.00
2022-08-17T21:51:56.066Z,99953.38
2022-08-17T21:54:36.844Z,99950.63
2022-08-17T21:57:14.457Z,99953.59
2022-08-17T21:59:43.554Z,99953.03
2022-08-17T22:02:23.747Z,99960.88
2022-08-17T22:05:10.005Z,99960.81
2022-08-17T22:07:43.777Z,99952.63
2022-08-17T22:10:30.649Z,99959.91
2022-08-17T22:13:17.018Z,99968.00
2022-08-17T22:15:47.059Z,99959.81
2022-08-17T22:18:19.868Z,99953.56
2022-08-17T22:20:51.829Z,99951.09
2022-08-17T22:23:47.669Z,99946.53
2022-08-17T22:26:16.632Z,99960.06
2022-08-17T22:28:47.417Z,99962.53
2022-08-17T22:31:17.144Z,99973.38
2022-08-17T22:33:50.027Z,99979.84
2022-08-17T22:36:22.920Z,99974.13
2022-08-17T22:38:51.077Z,99979.56
2022-08-17T22:41:26.554Z,99966.25
2022-08-17T22:43:54.981Z,99970.03
2022-08-17T22:46:24.008Z,99972.69
2022-08-17T22:48:53.742Z,99979.38
2022-08-17T22:51:23.813Z,99975.22
2022-08-17T22:54:14.817Z,99984.13
2022-08-17T22:57:18.858Z,99977.56
2022-08-17T22:59:51.594Z,99983.75
2022-08-17T23:02:24.589Z,99991.81
2022-08-17T23:05:15.711Z,99985.47
2022-08-17T23:07:44.375Z,99990.34
2022-08-17T23:10:13.253Z,99976.00
2022-08-17T23:12:39.924Z,99980.59
2022-08-17T23:15:16.514Z,99975.19
2022-08-17T23:17:43.182Z,99979.19
2022-08-17T23:20:14.106Z,99974.56
2022-08-17T23:22:51.537Z,99981.91
2022-08-17T23:25:27.961Z,99984.06
2022-08-17T23:27:55.514Z,99987.00
2022-08-17T23:30:25.292Z,99995.19
2022-08-17T23:32:54.200Z,99991.38
2022-08-17T23:35:40.079Z,99994.31
2022-08-17T23:38:09.665Z,99994.56
2022-08-17T23:40:37.638Z,100000.72
2022-08-17T23:43:11.499Z,100001.16
2022-08-17T23:45:55.139Z,100004.69
2022-08-17T23:48:34.973Z,100007.66
2022-08-17T23:51:18.940Z,100018.16
2022-08-17T23:53:49.966Z,99999.47
2022-08-17T23:56:20.985Z,100002.41
2022-08-17T23:58:47.361Z,100003.75
